sensor_id;sensor_type;location;lat;lon;timestamp;P1;durP1;ratioP1;P2;durP2;ratioP2
52730;SDS011;38624;53.242;6.974;2023-07-08T00:02:10;7.45;;;4.30;;
52730;SDS011;38624;53.242;6.974;2023-07-08T00:04:37;7.72;;;4.47;;
52730;SDS011;38624;53.242;6.974;2023-07-08T00:07:03;6.35;;;4.25;;
52730;SDS011;38624;53.242;6.974;2023-07-08T00:11:56;6.07;;;4.07;;
52730;SDS011;38624;53.242;6.974;2023-07-08T00:14:24;7.90;;;4.68;;
52730;SDS011;38624;53.242;6.974;2023-07-08T00:16:50;5.87;;;4.13;;
52730;SDS011;38624;53.242;6.974;2023-07-08T00:19:16;6.60;;;4.50;;
52730;SDS011;38624;53.242;6.974;2023-07-08T00:21:47;7.53;;;4.80;;
52730;SDS011;38624;53.242;6.974;2023-07-08T00:24:13;8.93;;;4.75;;
52730;SDS011;38624;53.242;6.974;2023-07-08T00:26:38;10.97;;;5.57;;
52730;SDS011;38624;53.242;6.974;2023-07-08T00:29:10;7.07;;;4.83;;
52730;SDS011;38624;53.242;6.974;2023-07-08T00:31:37;10.23;;;5.03;;
52730;SDS011;38624;53.242;6.974;2023-07-08T00:34:02;8.07;;;4.63;;
52730;SDS011;38624;53.242;6.974;2023-07-08T00:36:28;6.60;;;5.37;;
52730;SDS011;38624;53.242;6.974;2023-07-08T00:38:55;8.15;;;5.30;;
52730;SDS011;38624;53.242;6.974;2023-07-08T00:43:51;7.78;;;5.43;;
52730;SDS011;38624;53.242;6.974;2023-07-08T00:49:03;8.32;;;5.15;;
52730;SDS011;38624;53.242;6.974;2023-07-08T00:51:33;7.80;;;5.22;;
52730;SDS011;38624;53.242;6.974;2023-07-08T00:54:03;9.18;;;5.32;;
52730;SDS011;38624;53.242;6.974;2023-07-08T00:56:33;11.45;;;5.03;;
52730;SDS011;38624;53.242;6.974;2023-07-08T00:59:05;9.93;;;5.75;;
52730;SDS011;38624;53.242;6.974;2023-07-08T01:01:35;7.32;;;5.00;;
52730;SDS011;38624;53.242;6.974;2023-07-08T01:04:06;8.38;;;5.50;;
52730;SDS011;38624;53.242;6.974;2023-07-08T01:06:50;11.27;;;5.28;;
52730;SDS011;38624;53.242;6.974;2023-07-08T01:09:32;9.63;;;5.25;;
52730;SDS011;38624;53.242;6.974;2023-07-08T01:12:04;7.20;;;4.95;;
52730;SDS011;38624;53.242;6.974;2023-07-08T01:14:34;9.55;;;5.10;;
52730;SDS011;38624;53.242;6.974;2023-07-08T01:17:02;8.73;;;4.75;;
52730;SDS011;38624;53.242;6.974;2023-07-08T01:19:28;8.93;;;4.97;;
52730;SDS011;38624;53.242;6.974;2023-07-08T01:21:58;6.88;;;4.47;;
52730;SDS011;38624;53.242;6.974;2023-07-08T01:24:24;7.07;;;5.32;;
52730;SDS011;38624;53.242;6.974;2023-07-08T01:26:51;7.75;;;4.60;;
52730;SDS011;38624;53.242;6.974;2023-07-08T01:29:17;7.82;;;4.97;;
52730;SDS011;38624;53.242;6.974;2023-07-08T01:31:43;9.77;;;4.80;;
52730;SDS011;38624;53.242;6.974;2023-07-08T01:34:14;7.90;;;5.32;;
52730;SDS011;38624;53.242;6.974;2023-07-08T01:36:41;8.13;;;5.07;;
52730;SDS011;38624;53.242;6.974;2023-07-08T01:39:13;8.55;;;5.05;;
52730;SDS011;38624;53.242;6.974;2023-07-08T01:41:43;7.05;;;4.90;;
52730;SDS011;38624;53.242;6.974;2023-07-08T01:49:25;7.47;;;5.10;;
52730;SDS011;38624;53.242;6.974;2023-07-08T01:51:51;7.60;;;5.37;;
52730;SDS011;38624;53.242;6.974;2023-07-08T01:54:17;8.57;;;6.00;;
52730;SDS011;38624;53.242;6.974;2023-07-08T01:56:43;8.17;;;5.87;;
52730;SDS011;38624;53.242;6.974;2023-07-08T01:59:08;8.47;;;5.70;;
52730;SDS011;38624;53.242;6.974;2023-07-08T02:01:34;8.33;;;5.23;;
52730;SDS011;38624;53.242;6.974;2023-07-08T02:04:00;7.50;;;5.20;;
52730;SDS011;38624;53.242;6.974;2023-07-08T02:06:25;7.27;;;5.73;;
52730;SDS011;38624;53.242;6.974;2023-07-08T02:08:51;9.20;;;6.33;;
52730;SDS011;38624;53.242;6.974;2023-07-08T02:11:17;7.53;;;5.80;;
52730;SDS011;38624;53.242;6.974;2023-07-08T02:13:43;8.53;;;5.83;;
52730;SDS011;38624;53.242;6.974;2023-07-08T02:16:09;9.25;;;6.00;;
52730;SDS011;38624;53.242;6.974;2023-07-08T02:18:34;11.03;;;5.93;;
52730;SDS011;38624;53.242;6.974;2023-07-08T02:21:00;9.37;;;5.87;;
52730;SDS011;38624;53.242;6.974;2023-07-08T02:23:26;7.67;;;5.77;;
52730;SDS011;38624;53.242;6.974;2023-07-08T02:25:52;10.53;;;6.40;;
52730;SDS011;38624;53.242;6.974;2023-07-08T02:28:18;9.52;;;6.00;;
52730;SDS011;38624;53.242;6.974;2023-07-08T02:30:44;7.83;;;6.10;;
52730;SDS011;38624;53.242;6.974;2023-07-08T02:33:11;11.15;;;6.72;;
52730;SDS011;38624;53.242;6.974;2023-07-08T02:35:38;9.27;;;5.50;;
52730;SDS011;38624;53.242;6.974;2023-07-08T02:38:03;14.63;;;6.40;;
52730;SDS011;38624;53.242;6.974;2023-07-08T02:40:29;9.40;;;6.45;;
52730;SDS011;38624;53.242;6.974;2023-07-08T02:42:55;8.67;;;6.23;;
52730;SDS011;38624;53.242;6.974;2023-07-08T02:45:21;8.93;;;6.23;;
52730;SDS011;38624;53.242;6.974;2023-07-08T02:47:46;11.47;;;6.40;;
52730;SDS011;38624;53.242;6.974;2023-07-08T02:50:12;9.70;;;6.47;;
52730;SDS011;38624;53.242;6.974;2023-07-08T02:52:38;9.30;;;5.93;;
52730;SDS011;38624;53.242;6.974;2023-07-08T02:55:04;8.33;;;6.00;;
52730;SDS011;38624;53.242;6.974;2023-07-08T02:59:56;13.07;;;6.45;;
52730;SDS011;38624;53.242;6.974;2023-07-08T03:02:22;7.97;;;6.50;;
52730;SDS011;38624;53.242;6.974;2023-07-08T03:04:48;11.15;;;6.30;;
52730;SDS011;38624;53.242;6.974;2023-07-08T03:09:41;9.25;;;5.18;;
52730;SDS011;38624;53.242;6.974;2023-07-08T03:12:07;9.75;;;6.07;;
52730;SDS011;38624;53.242;6.974;2023-07-08T03:14:34;9.25;;;6.72;;
52730;SDS011;38624;53.242;6.974;2023-07-08T03:17:00;7.35;;;5.75;;
52730;SDS011;38624;53.242;6.974;2023-07-08T03:19:26;10.13;;;6.33;;
52730;SDS011;38624;53.242;6.974;2023-07-08T03:21:51;10.13;;;6.17;;
52730;SDS011;38624;53.242;6.974;2023-07-08T03:24:17;8.80;;;6.60;;
52730;SDS011;38624;53.242;6.974;2023-07-08T03:26:43;12.30;;;6.93;;
52730;SDS011;38624;53.242;6.974;2023-07-08T03:31:40;9.35;;;6.35;;
52730;SDS011;38624;53.242;6.974;2023-07-08T03:34:07;10.10;;;7.53;;
52730;SDS011;38624;53.242;6.974;2023-07-08T03:36:35;10.07;;;6.30;;
52730;SDS011;38624;53.242;6.974;2023-07-08T03:39:05;11.02;;;6.70;;
52730;SDS011;38624;53.242;6.974;2023-07-08T03:41:31;8.73;;;6.57;;
52730;SDS011;38624;53.242;6.974;2023-07-08T03:43:56;10.07;;;6.87;;
52730;SDS011;38624;53.242;6.974;2023-07-08T03:46:22;9.90;;;6.67;;
52730;SDS011;38624;53.242;6.974;2023-07-08T03:48:48;10.43;;;6.35;;
52730;SDS011;38624;53.242;6.974;2023-07-08T03:51:20;9.43;;;7.00;;
52730;SDS011;38624;53.242;6.974;2023-07-08T03:53:48;10.85;;;6.88;;
52730;SDS011;38624;53.242;6.974;2023-07-08T03:56:14;9.93;;;6.90;;
52730;SDS011;38624;53.242;6.974;2023-07-08T03:58:39;8.97;;;6.77;;
52730;SDS011;38624;53.242;6.974;2023-07-08T04:01:08;13.17;;;7.33;;
52730;SDS011;38624;53.242;6.974;2023-07-08T04:03:41;10.00;;;6.97;;
52730;SDS011;38624;53.242;6.974;2023-07-08T04:06:07;13.23;;;6.72;;
52730;SDS011;38624;53.242;6.974;2023-07-08T04:08:33;9.40;;;6.80;;
52730;SDS011;38624;53.242;6.974;2023-07-08T04:10:59;10.17;;;6.67;;
52730;SDS011;38624;53.242;6.974;2023-07-08T04:13:24;10.30;;;7.50;;
52730;SDS011;38624;53.242;6.974;2023-07-08T04:15:51;11.30;;;6.90;;
52730;SDS011;38624;53.242;6.974;2023-07-08T04:18:20;8.32;;;5.95;;
52730;SDS011;38624;53.242;6.974;2023-07-08T04:20:46;8.53;;;6.70;;
52730;SDS011;38624;53.242;6.974;2023-07-08T04:23:20;8.93;;;6.20;;
52730;SDS011;38624;53.242;6.974;2023-07-08T04:25:47;9.60;;;6.07;;
52730;SDS011;38624;53.242;6.974;2023-07-08T04:28:14;10.18;;;5.50;;
52730;SDS011;38624;53.242;6.974;2023-07-08T04:30:41;8.60;;;6.43;;
52730;SDS011;38624;53.242;6.974;2023-07-08T04:35:34;8.10;;;6.38;;
52730;SDS011;38624;53.242;6.974;2023-07-08T04:38:03;8.45;;;5.88;;
52730;SDS011;38624;53.242;6.974;2023-07-08T04:40:39;11.02;;;7.03;;
52730;SDS011;38624;53.242;6.974;2023-07-08T04:43:05;10.20;;;7.13;;
52730;SDS011;38624;53.242;6.974;2023-07-08T04:45:31;6.53;;;5.30;;
52730;SDS011;38624;53.242;6.974;2023-07-08T04:47:57;10.85;;;6.80;;
52730;SDS011;38624;53.242;6.974;2023-07-08T04:50:23;8.10;;;6.00;;
52730;SDS011;38624;53.242;6.974;2023-07-08T04:52:49;9.45;;;7.05;;
52730;SDS011;38624;53.242;6.974;2023-07-08T04:55:15;7.82;;;6.03;;
52730;SDS011;38624;53.242;6.974;2023-07-08T04:57:44;10.35;;;6.40;;
52730;SDS011;38624;53.242;6.974;2023-07-08T05:00:15;10.20;;;6.47;;
52730;SDS011;38624;53.242;6.974;2023-07-08T05:02:42;12.93;;;7.00;;
52730;SDS011;38624;53.242;6.974;2023-07-08T05:05:08;8.57;;;6.03;;
52730;SDS011;38624;53.242;6.974;2023-07-08T05:07:33;6.63;;;5.60;;
52730;SDS011;38624;53.242;6.974;2023-07-08T05:09:59;10.43;;;6.30;;
52730;SDS011;38624;53.242;6.974;2023-07-08T05:12:25;9.30;;;6.13;;
52730;SDS011;38624;53.242;6.974;2023-07-08T05:14:51;8.93;;;6.90;;
52730;SDS011;38624;53.242;6.974;2023-07-08T05:17:17;7.83;;;6.30;;
52730;SDS011;38624;53.242;6.974;2023-07-08T05:19:43;8.43;;;5.77;;
52730;SDS011;38624;53.242;6.974;2023-07-08T05:22:10;11.48;;;6.43;;
52730;SDS011;38624;53.242;6.974;2023-07-08T05:24:36;7.20;;;4.65;;
52730;SDS011;38624;53.242;6.974;2023-07-08T05:27:02;8.60;;;7.13;;
52730;SDS011;38624;53.242;6.974;2023-07-08T05:29:28;8.60;;;5.97;;
52730;SDS011;38624;53.242;6.974;2023-07-08T05:31:54;9.90;;;6.67;;
52730;SDS011;38624;53.242;6.974;2023-07-08T05:34:20;7.67;;;5.67;;
52730;SDS011;38624;53.242;6.974;2023-07-08T05:36:46;7.80;;;5.50;;
52730;SDS011;38624;53.242;6.974;2023-07-08T05:39:12;7.87;;;5.70;;
52730;SDS011;38624;53.242;6.974;2023-07-08T05:41:38;14.07;;;6.55;;
52730;SDS011;38624;53.242;6.974;2023-07-08T05:44:04;8.23;;;5.85;;
52730;SDS011;38624;53.242;6.974;2023-07-08T05:46:30;9.60;;;6.13;;
52730;SDS011;38624;53.242;6.974;2023-07-08T05:48:55;10.37;;;6.00;;
52730;SDS011;38624;53.242;6.974;2023-07-08T05:51:21;9.80;;;5.60;;
52730;SDS011;38624;53.242;6.974;2023-07-08T05:53:47;9.03;;;5.70;;
52730;SDS011;38624;53.242;6.974;2023-07-08T05:56:12;6.50;;;5.33;;
52730;SDS011;38624;53.242;6.974;2023-07-08T05:58:38;8.50;;;5.67;;
52730;SDS011;38624;53.242;6.974;2023-07-08T06:01:04;8.37;;;4.33;;
52730;SDS011;38624;53.242;6.974;2023-07-08T06:03:29;7.40;;;5.37;;
52730;SDS011;38624;53.242;6.974;2023-07-08T06:05:55;7.37;;;5.50;;
52730;SDS011;38624;53.242;6.974;2023-07-08T06:08:21;5.90;;;4.90;;
52730;SDS011;38624;53.242;6.974;2023-07-08T06:10:47;6.60;;;4.30;;
52730;SDS011;38624;53.242;6.974;2023-07-08T06:13:13;6.83;;;4.77;;
52730;SDS011;38624;53.242;6.974;2023-07-08T06:15:39;7.68;;;4.85;;
52730;SDS011;38624;53.242;6.974;2023-07-08T06:18:06;8.40;;;4.95;;
52730;SDS011;38624;53.242;6.974;2023-07-08T06:20:31;7.03;;;4.53;;
52730;SDS011;38624;53.242;6.974;2023-07-08T06:22:57;7.50;;;5.53;;
52730;SDS011;38624;53.242;6.974;2023-07-08T06:25:23;7.83;;;4.33;;
52730;SDS011;38624;53.242;6.974;2023-07-08T06:27:49;8.67;;;5.00;;
52730;SDS011;38624;53.242;6.974;2023-07-08T06:30:14;10.63;;;4.23;;
52730;SDS011;38624;53.242;6.974;2023-07-08T06:32:40;8.93;;;4.50;;
52730;SDS011;38624;53.242;6.974;2023-07-08T06:35:06;6.77;;;4.57;;
52730;SDS011;38624;53.242;6.974;2023-07-08T06:37:32;7.88;;;3.95;;
52730;SDS011;38624;53.242;6.974;2023-07-08T06:39:57;8.73;;;4.90;;
52730;SDS011;38624;53.242;6.974;2023-07-08T06:42:23;7.73;;;4.43;;
52730;SDS011;38624;53.242;6.974;2023-07-08T06:44:49;5.80;;;4.47;;
52730;SDS011;38624;53.242;6.974;2023-07-08T06:47:17;8.82;;;4.43;;
52730;SDS011;38624;53.242;6.974;2023-07-08T06:49:45;8.18;;;4.20;;
52730;SDS011;38624;53.242;6.974;2023-07-08T06:52:13;6.95;;;4.22;;
52730;SDS011;38624;53.242;6.974;2023-07-08T06:54:39;8.63;;;4.05;;
52730;SDS011;38624;53.242;6.974;2023-07-08T06:57:05;11.00;;;4.40;;
52730;SDS011;38624;53.242;6.974;2023-07-08T06:59:31;8.93;;;4.50;;
52730;SDS011;38624;53.242;6.974;2023-07-08T07:01:57;8.98;;;3.72;;
52730;SDS011;38624;53.242;6.974;2023-07-08T07:04:23;7.37;;;4.40;;
52730;SDS011;38624;53.242;6.974;2023-07-08T07:06:49;5.40;;;3.90;;
52730;SDS011;38624;53.242;6.974;2023-07-08T07:09:14;8.13;;;3.67;;
52730;SDS011;38624;53.242;6.974;2023-07-08T07:11:40;6.23;;;4.17;;
52730;SDS011;38624;53.242;6.974;2023-07-08T07:14:06;8.30;;;4.20;;
52730;SDS011;38624;53.242;6.974;2023-07-08T07:16:32;6.50;;;3.67;;
52730;SDS011;38624;53.242;6.974;2023-07-08T07:18:57;7.30;;;4.10;;
52730;SDS011;38624;53.242;6.974;2023-07-08T07:21:25;6.03;;;3.67;;
52730;SDS011;38624;53.242;6.974;2023-07-08T07:23:53;6.32;;;4.10;;
52730;SDS011;38624;53.242;6.974;2023-07-08T07:26:19;5.57;;;3.60;;
52730;SDS011;38624;53.242;6.974;2023-07-08T07:28:44;5.87;;;3.50;;
52730;SDS011;38624;53.242;6.974;2023-07-08T07:31:10;5.63;;;3.67;;
52730;SDS011;38624;53.242;6.974;2023-07-08T07:33:36;4.95;;;3.45;;
52730;SDS011;38624;53.242;6.974;2023-07-08T07:36:02;8.27;;;3.88;;
52730;SDS011;38624;53.242;6.974;2023-07-08T07:38:28;9.27;;;3.80;;
52730;SDS011;38624;53.242;6.974;2023-07-08T07:43:25;5.55;;;3.80;;
52730;SDS011;38624;53.242;6.974;2023-07-08T07:45:51;7.20;;;4.00;;
52730;SDS011;38624;53.242;6.974;2023-07-08T07:48:19;5.45;;;3.28;;
52730;SDS011;38624;53.242;6.974;2023-07-08T07:50:46;5.47;;;3.47;;
52730;SDS011;38624;53.242;6.974;2023-07-08T07:53:13;5.63;;;3.55;;
52730;SDS011;38624;53.242;6.974;2023-07-08T07:55:39;9.00;;;3.67;;
52730;SDS011;38624;53.242;6.974;2023-07-08T07:58:05;4.95;;;3.65;;
52730;SDS011;38624;53.242;6.974;2023-07-08T08:00:31;6.43;;;3.42;;
52730;SDS011;38624;53.242;6.974;2023-07-08T08:02:56;5.53;;;3.87;;
52730;SDS011;38624;53.242;6.974;2023-07-08T08:05:23;5.13;;;3.47;;
52730;SDS011;38624;53.242;6.974;2023-07-08T08:07:48;6.38;;;3.70;;
52730;SDS011;38624;53.242;6.974;2023-07-08T08:10:14;3.73;;;2.93;;
52730;SDS011;38624;53.242;6.974;2023-07-08T08:12:41;5.97;;;3.30;;
52730;SDS011;38624;53.242;6.974;2023-07-08T08:15:07;4.03;;;3.30;;
52730;SDS011;38624;53.242;6.974;2023-07-08T08:17:33;5.13;;;2.92;;
52730;SDS011;38624;53.242;6.974;2023-07-08T08:19:59;6.28;;;3.63;;
52730;SDS011;38624;53.242;6.974;2023-07-08T08:22:25;4.57;;;3.77;;
52730;SDS011;38624;53.242;6.974;2023-07-08T08:24:50;5.60;;;3.55;;
52730;SDS011;38624;53.242;6.974;2023-07-08T08:27:16;6.53;;;3.53;;
52730;SDS011;38624;53.242;6.974;2023-07-08T08:29:42;5.20;;;3.67;;
52730;SDS011;38624;53.242;6.974;2023-07-08T08:32:11;5.47;;;3.47;;
52730;SDS011;38624;53.242;6.974;2023-07-08T08:34:39;5.28;;;3.38;;
52730;SDS011;38624;53.242;6.974;2023-07-08T08:37:05;4.65;;;3.58;;
52730;SDS011;38624;53.242;6.974;2023-07-08T08:39:30;4.57;;;2.80;;
52730;SDS011;38624;53.242;6.974;2023-07-08T08:41:56;5.50;;;3.30;;
52730;SDS011;38624;53.242;6.974;2023-07-08T08:44:25;5.00;;;3.55;;
52730;SDS011;38624;53.242;6.974;2023-07-08T08:47:57;5.28;;;3.30;;
52730;SDS011;38624;53.242;6.974;2023-07-08T08:49:57;4.40;;;2.90;;
52730;SDS011;38624;53.242;6.974;2023-07-08T08:52:31;4.95;;;3.45;;
52730;SDS011;38624;53.242;6.974;2023-07-08T08:55:00;4.13;;;2.88;;
52730;SDS011;38624;53.242;6.974;2023-07-08T08:57:36;7.55;;;3.22;;
52730;SDS011;38624;53.242;6.974;2023-07-08T09:00:23;4.70;;;3.40;;
52730;SDS011;38624;53.242;6.974;2023-07-08T09:05:22;5.25;;;3.33;;
52730;SDS011;38624;53.242;6.974;2023-07-08T09:08:03;5.68;;;3.63;;
52730;SDS011;38624;53.242;6.974;2023-07-08T09:18:25;5.95;;;3.67;;
52730;SDS011;38624;53.242;6.974;2023-07-08T09:20:57;11.25;;;4.10;;
52730;SDS011;38624;53.242;6.974;2023-07-08T09:23:27;6.22;;;3.30;;
52730;SDS011;38624;53.242;6.974;2023-07-08T09:26:11;4.85;;;3.20;;
52730;SDS011;38624;53.242;6.974;2023-07-08T09:28:43;9.25;;;4.10;;
52730;SDS011;38624;53.242;6.974;2023-07-08T09:31:24;5.38;;;3.47;;
52730;SDS011;38624;53.242;6.974;2023-07-08T09:33:52;6.15;;;3.80;;
52730;SDS011;38624;53.242;6.974;2023-07-08T09:36:32;11.10;;;3.80;;
52730;SDS011;38624;53.242;6.974;2023-07-08T09:38:57;6.37;;;3.53;;
52730;SDS011;38624;53.242;6.974;2023-07-08T09:41:32;5.75;;;3.55;;
52730;SDS011;38624;53.242;6.974;2023-07-08T09:44:04;4.63;;;3.25;;
52730;SDS011;38624;53.242;6.974;2023-07-08T09:46:35;6.68;;;3.40;;
52730;SDS011;38624;53.242;6.974;2023-07-08T09:49:15;8.88;;;3.65;;
52730;SDS011;38624;53.242;6.974;2023-07-08T09:51:45;7.55;;;3.50;;
52730;SDS011;38624;53.242;6.974;2023-07-08T09:54:11;7.05;;;3.38;;
52730;SDS011;38624;53.242;6.974;2023-07-08T09:56:40;5.25;;;3.53;;
52730;SDS011;38624;53.242;6.974;2023-07-08T09:59:11;7.72;;;3.47;;
52730;SDS011;38624;53.242;6.974;2023-07-08T10:01:39;4.82;;;3.33;;
52730;SDS011;38624;53.242;6.974;2023-07-08T10:04:06;4.03;;;3.13;;
52730;SDS011;38624;53.242;6.974;2023-07-08T10:06:32;5.15;;;3.58;;
52730;SDS011;38624;53.242;6.974;2023-07-08T10:09:08;5.68;;;3.20;;
52730;SDS011;38624;53.242;6.974;2023-07-08T10:11:42;5.70;;;3.38;;
52730;SDS011;38624;53.242;6.974;2023-07-08T10:16:41;6.18;;;3.20;;
52730;SDS011;38624;53.242;6.974;2023-07-08T10:19:13;4.33;;;3.20;;
52730;SDS011;38624;53.242;6.974;2023-07-08T10:27:15;3.85;;;3.08;;
52730;SDS011;38624;53.242;6.974;2023-07-08T10:29:55;5.95;;;3.17;;
52730;SDS011;38624;53.242;6.974;2023-07-08T10:38:53;6.57;;;3.38;;
52730;SDS011;38624;53.242;6.974;2023-07-08T10:41:43;5.82;;;3.10;;
52730;SDS011;38624;53.242;6.974;2023-07-08T10:44:21;6.10;;;3.03;;
52730;SDS011;38624;53.242;6.974;2023-07-08T10:52:44;6.28;;;3.13;;
52730;SDS011;38624;53.242;6.974;2023-07-08T10:55:19;6.10;;;3.10;;
52730;SDS011;38624;53.242;6.974;2023-07-08T11:05:58;4.25;;;3.10;;
52730;SDS011;38624;53.242;6.974;2023-07-08T11:08:36;3.72;;;3.00;;
52730;SDS011;38624;53.242;6.974;2023-07-08T11:11:07;4.38;;;3.10;;
52730;SDS011;38624;53.242;6.974;2023-07-08T11:13:53;3.90;;;3.20;;
52730;SDS011;38624;53.242;6.974;2023-07-08T11:21:29;5.25;;;3.38;;
52730;SDS011;38624;53.242;6.974;2023-07-08T11:26:50;7.80;;;3.58;;
52730;SDS011;38624;53.242;6.974;2023-07-08T11:29:29;4.93;;;3.45;;
52730;SDS011;38624;53.242;6.974;2023-07-08T11:32:16;5.82;;;3.10;;
52730;SDS011;38624;53.242;6.974;2023-07-08T11:34:46;5.53;;;3.30;;
52730;SDS011;38624;53.242;6.974;2023-07-08T11:37:15;4.55;;;3.03;;
52730;SDS011;38624;53.242;6.974;2023-07-08T11:39:46;5.72;;;3.65;;
52730;SDS011;38624;53.242;6.974;2023-07-08T11:42:39;7.05;;;3.42;;
52730;SDS011;38624;53.242;6.974;2023-07-08T11:47:48;6.35;;;3.38;;
52730;SDS011;38624;53.242;6.974;2023-07-08T11:52:57;4.97;;;3.20;;
52730;SDS011;38624;53.242;6.974;2023-07-08T11:55:26;8.73;;;3.70;;
52730;SDS011;38624;53.242;6.974;2023-07-08T11:58:00;5.38;;;3.50;;
52730;SDS011;38624;53.242;6.974;2023-07-08T12:00:30;4.72;;;3.35;;
52730;SDS011;38624;53.242;6.974;2023-07-08T12:03:03;4.53;;;3.00;;
52730;SDS011;38624;53.242;6.974;2023-07-08T12:05:47;5.10;;;3.45;;
52730;SDS011;38624;53.242;6.974;2023-07-08T12:08:14;6.28;;;3.30;;
52730;SDS011;38624;53.242;6.974;2023-07-08T12:10:52;5.20;;;3.50;;
52730;SDS011;38624;53.242;6.974;2023-07-08T12:13:19;6.97;;;3.78;;
52730;SDS011;38624;53.242;6.974;2023-07-08T12:15:47;4.85;;;3.20;;
52730;SDS011;38624;53.242;6.974;2023-07-08T12:18:15;6.97;;;3.22;;
52730;SDS011;38624;53.242;6.974;2023-07-08T12:20:48;6.25;;;3.53;;
52730;SDS011;38624;53.242;6.974;2023-07-08T12:23:21;5.05;;;3.33;;
52730;SDS011;38624;53.242;6.974;2023-07-08T12:25:48;4.88;;;3.15;;
52730;SDS011;38624;53.242;6.974;2023-07-08T12:28:15;4.70;;;3.33;;
52730;SDS011;38624;53.242;6.974;2023-07-08T12:30:42;7.00;;;3.35;;
52730;SDS011;38624;53.242;6.974;2023-07-08T12:33:12;3.63;;;3.10;;
52730;SDS011;38624;53.242;6.974;2023-07-08T12:35:44;6.15;;;3.47;;
52730;SDS011;38624;53.242;6.974;2023-07-08T12:40:49;4.93;;;3.38;;
52730;SDS011;38624;53.242;6.974;2023-07-08T12:43:15;7.38;;;3.55;;
52730;SDS011;38624;53.242;6.974;2023-07-08T12:45:43;6.82;;;3.83;;
52730;SDS011;38624;53.242;6.974;2023-07-08T12:48:09;6.13;;;3.53;;
52730;SDS011;38624;53.242;6.974;2023-07-08T12:50:35;5.00;;;3.47;;
52730;SDS011;38624;53.242;6.974;2023-07-08T12:53:03;5.90;;;3.53;;
52730;SDS011;38624;53.242;6.974;2023-07-08T12:55:37;5.47;;;3.45;;
52730;SDS011;38624;53.242;6.974;2023-07-08T12:58:05;6.32;;;3.88;;
52730;SDS011;38624;53.242;6.974;2023-07-08T13:00:38;6.88;;;4.03;;
52730;SDS011;38624;53.242;6.974;2023-07-08T13:03:12;4.93;;;3.83;;
52730;SDS011;38624;53.242;6.974;2023-07-08T13:05:41;4.70;;;3.58;;
52730;SDS011;38624;53.242;6.974;2023-07-08T13:08:09;3.60;;;3.08;;
52730;SDS011;38624;53.242;6.974;2023-07-08T13:10:48;5.63;;;3.65;;
52730;SDS011;38624;53.242;6.974;2023-07-08T13:13:25;6.88;;;3.88;;
52730;SDS011;38624;53.242;6.974;2023-07-08T13:15:55;5.07;;;3.78;;
52730;SDS011;38624;53.242;6.974;2023-07-08T13:20:57;5.13;;;3.47;;
52730;SDS011;38624;53.242;6.974;2023-07-08T13:23:31;7.90;;;3.85;;
52730;SDS011;38624;53.242;6.974;2023-07-08T13:25:59;5.95;;;3.72;;
52730;SDS011;38624;53.242;6.974;2023-07-08T13:31:01;4.63;;;3.60;;
52730;SDS011;38624;53.242;6.974;2023-07-08T13:33:38;8.05;;;4.00;;
52730;SDS011;38624;53.242;6.974;2023-07-08T13:36:04;7.03;;;4.03;;
52730;SDS011;38624;53.242;6.974;2023-07-08T13:38:34;4.30;;;3.40;;
52730;SDS011;38624;53.242;6.974;2023-07-08T13:41:03;5.13;;;3.85;;
52730;SDS011;38624;53.242;6.974;2023-07-08T13:43:33;6.30;;;3.70;;
52730;SDS011;38624;53.242;6.974;2023-07-08T13:46:06;8.07;;;5.07;;
52730;SDS011;38624;53.242;6.974;2023-07-08T13:48:51;9.50;;;4.40;;
52730;SDS011;38624;53.242;6.974;2023-07-08T13:51:18;5.82;;;4.65;;
52730;SDS011;38624;53.242;6.974;2023-07-08T13:53:59;6.22;;;3.92;;
52730;SDS011;38624;53.242;6.974;2023-07-08T13:56:33;5.57;;;3.90;;
52730;SDS011;38624;53.242;6.974;2023-07-08T13:59:10;4.55;;;3.72;;
52730;SDS011;38624;53.242;6.974;2023-07-08T14:01:43;4.78;;;3.47;;
52730;SDS011;38624;53.242;6.974;2023-07-08T14:04:10;7.22;;;4.10;;
52730;SDS011;38624;53.242;6.974;2023-07-08T14:06:42;4.70;;;4.00;;
52730;SDS011;38624;53.242;6.974;2023-07-08T14:09:26;4.55;;;3.67;;
52730;SDS011;38624;53.242;6.974;2023-07-08T14:11:52;7.05;;;4.25;;
52730;SDS011;38624;53.242;6.974;2023-07-08T14:14:18;7.43;;;4.07;;
52730;SDS011;38624;53.242;6.974;2023-07-08T14:16:48;8.82;;;4.25;;
52730;SDS011;38624;53.242;6.974;2023-07-08T14:19:17;6.57;;;3.80;;
52730;SDS011;38624;53.242;6.974;2023-07-08T14:21:48;6.00;;;3.90;;
52730;SDS011;38624;53.242;6.974;2023-07-08T14:24:21;7.75;;;4.32;;
52730;SDS011;38624;53.242;6.974;2023-07-08T14:26:47;5.50;;;4.15;;
52730;SDS011;38624;53.242;6.974;2023-07-08T14:29:13;7.53;;;4.20;;
52730;SDS011;38624;53.242;6.974;2023-07-08T14:31:42;5.78;;;4.10;;
52730;SDS011;38624;53.242;6.974;2023-07-08T14:34:09;5.43;;;3.88;;
52730;SDS011;38624;53.242;6.974;2023-07-08T14:36:38;6.22;;;4.13;;
52730;SDS011;38624;53.242;6.974;2023-07-08T14:39:14;7.35;;;4.32;;
52730;SDS011;38624;53.242;6.974;2023-07-08T14:41:41;7.00;;;3.67;;
52730;SDS011;38624;53.242;6.974;2023-07-08T14:44:24;5.13;;;3.90;;
52730;SDS011;38624;53.242;6.974;2023-07-08T14:46:55;6.28;;;3.95;;
52730;SDS011;38624;53.242;6.974;2023-07-08T14:49:22;6.93;;;4.20;;
52730;SDS011;38624;53.242;6.974;2023-07-08T14:51:49;4.18;;;3.53;;
52730;SDS011;38624;53.242;6.974;2023-07-08T14:56:41;7.65;;;4.45;;
52730;SDS011;38624;53.242;6.974;2023-07-08T15:01:38;6.95;;;3.95;;
52730;SDS011;38624;53.242;6.974;2023-07-08T15:04:08;7.43;;;4.65;;
52730;SDS011;38624;53.242;6.974;2023-07-08T15:06:38;5.70;;;3.67;;
52730;SDS011;38624;53.242;6.974;2023-07-08T15:09:04;5.78;;;4.25;;
52730;SDS011;38624;53.242;6.974;2023-07-08T15:11:33;5.60;;;3.80;;
52730;SDS011;38624;53.242;6.974;2023-07-08T15:14:00;6.65;;;4.53;;
52730;SDS011;38624;53.242;6.974;2023-07-08T15:16:27;6.25;;;3.90;;
52730;SDS011;38624;53.242;6.974;2023-07-08T15:18:52;6.90;;;4.88;;
52730;SDS011;38624;53.242;6.974;2023-07-08T15:21:18;5.78;;;4.30;;
52730;SDS011;38624;53.242;6.974;2023-07-08T15:23:44;5.53;;;4.13;;
52730;SDS011;38624;53.242;6.974;2023-07-08T15:26:11;6.35;;;4.55;;
52730;SDS011;38624;53.242;6.974;2023-07-08T15:31:08;9.13;;;3.83;;
52730;SDS011;38624;53.242;6.974;2023-07-08T15:33:38;6.65;;;4.13;;
52730;SDS011;38624;53.242;6.974;2023-07-08T15:36:04;5.82;;;4.00;;
52730;SDS011;38624;53.242;6.974;2023-07-08T15:38:30;6.65;;;4.28;;
52730;SDS011;38624;53.242;6.974;2023-07-08T15:40:55;7.32;;;4.95;;
52730;SDS011;38624;53.242;6.974;2023-07-08T15:43:21;7.28;;;4.22;;
52730;SDS011;38624;53.242;6.974;2023-07-08T15:45:47;6.03;;;4.03;;
52730;SDS011;38624;53.242;6.974;2023-07-08T15:48:17;4.93;;;4.20;;
52730;SDS011;38624;53.242;6.974;2023-07-08T15:50:43;5.85;;;4.40;;
52730;SDS011;38624;53.242;6.974;2023-07-08T15:55:36;5.32;;;4.18;;
52730;SDS011;38624;53.242;6.974;2023-07-08T16:00:47;5.85;;;4.32;;
52730;SDS011;38624;53.242;6.974;2023-07-08T16:03:22;4.70;;;3.67;;
52730;SDS011;38624;53.242;6.974;2023-07-08T16:05:50;5.15;;;4.10;;
52730;SDS011;38624;53.242;6.974;2023-07-08T16:08:22;6.53;;;4.30;;
52730;SDS011;38624;53.242;6.974;2023-07-08T16:10:58;5.00;;;4.00;;
52730;SDS011;38624;53.242;6.974;2023-07-08T16:13:28;5.50;;;4.10;;
52730;SDS011;38624;53.242;6.974;2023-07-08T16:16:00;5.88;;;4.30;;
52730;SDS011;38624;53.242;6.974;2023-07-08T16:18:28;8.82;;;4.75;;
52730;SDS011;38624;53.242;6.974;2023-07-08T16:23:20;4.95;;;3.97;;
52730;SDS011;38624;53.242;6.974;2023-07-08T16:25:50;6.60;;;4.78;;
52730;SDS011;38624;53.242;6.974;2023-07-08T16:28:34;5.85;;;4.40;;
52730;SDS011;38624;53.242;6.974;2023-07-08T16:31:21;5.07;;;4.15;;
52730;SDS011;38624;53.242;6.974;2023-07-08T16:33:49;7.07;;;4.85;;
52730;SDS011;38624;53.242;6.974;2023-07-08T16:36:19;6.43;;;4.45;;